Time;durP1;ratioP1;P1;durP2;ratioP2;P2;SDS_P1;SDS_P2;PMS_P1;PMS_P2;Temp;Humidity;BMP_temperature;BMP_pressure;BME280_temperature;BME280_humidity;BME280_pressure;Samples;Min_cycle;Max_cycle;Signal;HPM_P1;HPM_P2
2024/01/24 00:01:04;;;;;;;3.30;0.80;;;7.60;86.20;;;;;;5041534;28;20082;-63
2024/01/24 00:03:30;;;;;;;3.50;0.70;;;7.60;86.20;;;;;;5039272;28;20032;-63
2024/01/24 00:05:55;;;;;;;2.38;0.73;;;7.60;86.20;;;;;;5041949;28;20059;-63
2024/01/24 00:08:21;;;;;;;3.20;0.80;;;7.60;86.10;;;;;;5038792;28;20040;-63
2024/01/24 00:10:46;;;;;;;3.40;0.68;;;7.60;86.00;;;;;;5041046;28;20116;-63
2024/01/24 00:13:12;;;;;;;2.20;0.70;;;7.70;86.10;;;;;;5038851;28;20033;-63
2024/01/24 00:15:38;;;;;;;4.30;0.93;;;7.70;86.00;;;;;;5046116;28;20037;-64
2024/01/24 00:18:04;;;;;;;2.63;0.60;;;7.70;86.00;;;;;;5043056;28;20043;-63
2024/01/24 00:20:29;;;;;;;1.60;0.60;;;7.70;85.90;;;;;;5047044;28;20033;-63
2024/01/24 00:22:55;;;;;;;1.23;0.65;;;7.80;86.00;;;;;;5047033;28;20033;-63
2024/01/24 00:25:21;;;;;;;3.38;0.93;;;7.80;85.90;;;;;;5045685;28;20400;-63
2024/01/24 00:27:47;;;;;;;3.55;0.90;;;7.80;85.70;;;;;;5041984;28;20098;-62
2024/01/24 00:30:12;;;;;;;3.63;0.70;;;7.80;85.70;;;;;;5041376;28;21203;-63
2024/01/24 00:32:38;;;;;;;2.47;0.50;;;7.90;85.70;;;;;;5039977;28;20039;-63
2024/01/24 00:35:04;;;;;;;1.83;0.68;;;7.90;85.50;;;;;;5040685;28;20079;-63
2024/01/24 00:37:30;;;;;;;3.17;0.70;;;7.90;85.50;;;;;;5044187;28;20037;-63
2024/01/24 00:39:55;;;;;;;2.03;0.60;;;7.90;85.50;;;;;;5042761;28;20052;-63
2024/01/24 00:42:21;;;;;;;3.75;0.70;;;7.90;85.40;;;;;;5042294;28;20033;-64
2024/01/24 00:44:48;;;;;;;4.35;0.77;;;8.00;85.30;;;;;;5040690;28;20037;-63
2024/01/24 00:47:13;;;;;;;1.98;0.70;;;8.00;85.30;;;;;;5038337;28;20041;-64
2024/01/24 00:49:39;;;;;;;2.03;0.65;;;8.00;85.20;;;;;;5041810;28;20500;-62
2024/01/24 00:52:04;;;;;;;3.65;0.77;;;8.10;85.20;;;;;;5041426;28;20036;-63
2024/01/24 00:54:30;;;;;;;1.75;0.60;;;8.10;85.00;;;;;;5041793;28;20060;-63
2024/01/24 00:56:56;;;;;;;3.22;0.70;;;8.10;84.90;;;;;;5036363;28;20037;-63
2024/01/24 00:59:22;;;;;;;1.35;0.60;;;8.20;84.80;;;;;;5041240;28;20037;-62
2024/01/24 01:01:48;;;;;;;1.83;0.65;;;8.20;84.80;;;;;;5038167;28;20043;-64
2024/01/24 01:04:14;;;;;;;2.30;0.63;;;8.20;84.60;;;;;;5041750;28;20566;-63
2024/01/24 01:06:39;;;;;;;2.47;0.50;;;8.30;84.60;;;;;;5040818;28;20037;-63
2024/01/24 01:09:05;;;;;;;1.65;0.50;;;8.20;84.50;;;;;;5041186;28;20512;-63
2024/01/24 01:11:30;;;;;;;2.20;0.82;;;8.30;84.40;;;;;;5059549;28;20021;-63
2024/01/24 01:13:56;;;;;;;1.42;0.52;;;8.30;84.30;;;;;;5043677;28;20056;-63
2024/01/24 01:16:22;;;;;;;2.58;0.52;;;8.30;84.20;;;;;;5046198;28;20545;-63
2024/01/24 01:18:47;;;;;;;2.38;0.63;;;8.30;84.20;;;;;;5045522;28;20033;-63
2024/01/24 01:21:13;;;;;;;2.13;0.50;;;8.30;84.10;;;;;;5046638;28;20053;-64
2024/01/24 01:23:39;;;;;;;3.45;0.60;;;8.30;84.10;;;;;;5043417;28;20033;-63
2024/01/24 01:26:04;;;;;;;2.65;0.70;;;8.30;84.10;;;;;;5041430;28;20109;-64
2024/01/24 01:28:30;;;;;;;3.13;0.50;;;8.30;84.10;;;;;;5044030;28;20121;-63
2024/01/24 01:30:55;;;;;;;2.88;0.80;;;8.30;84.00;;;;;;5045581;28;20094;-64
2024/01/24 01:33:21;;;;;;;2.50;0.70;;;8.30;83.90;;;;;;5042053;28;20025;-65
2024/01/24 01:35:46;;;;;;;3.03;0.47;;;8.30;83.80;;;;;;5044405;28;20450;-63
2024/01/24 01:38:14;;;;;;;2.30;0.63;;;8.40;83.80;;;;;;5043664;28;20037;-63
2024/01/24 01:40:39;;;;;;;2.90;0.77;;;8.40;83.40;;;;;;5045448;28;20029;-63
2024/01/24 01:43:14;;;;;;;4.57;0.85;;;8.40;83.00;;;;;;5041080;28;20396;-63
2024/01/24 01:45:41;;;;;;;2.42;0.40;;;8.50;82.60;;;;;;5040970;28;20021;-63
2024/01/24 01:48:08;;;;;;;3.70;0.70;;;8.60;82.80;;;;;;5042846;28;20117;-64
2024/01/24 01:50:34;;;;;;;1.80;0.70;;;8.60;82.10;;;;;;5041036;28;20123;-62
2024/01/24 01:53:03;;;;;;;3.22;0.50;;;8.70;82.30;;;;;;5040819;28;20873;-64
2024/01/24 01:55:31;;;;;;;2.97;0.57;;;8.80;81.90;;;;;;5040630;28;20404;-63
2024/01/24 01:57:58;;;;;;;2.75;0.70;;;8.80;81.50;;;;;;5039625;28;20033;-63
2024/01/24 02:00:25;;;;;;;2.13;0.60;;;8.90;81.20;;;;;;5041872;28;21466;-63
2024/01/24 02:02:51;;;;;;;2.63;0.50;;;9.00;81.90;;;;;;5042718;28;20052;-65
2024/01/24 02:05:18;;;;;;;1.88;0.60;;;9.00;81.00;;;;;;5043551;28;20061;-64
2024/01/24 02:07:44;;;;;;;1.83;0.70;;;9.10;80.90;;;;;;5047381;28;20029;-63
2024/01/24 02:10:14;;;;;;;1.45;0.50;;;9.10;80.80;;;;;;5040807;28;20044;-64
2024/01/24 02:12:39;;;;;;;2.92;0.50;;;9.20;80.50;;;;;;5036449;28;20067;-64
2024/01/24 02:15:06;;;;;;;3.67;0.60;;;9.20;80.50;;;;;;5037091;28;20320;-62
2024/01/24 02:17:31;;;;;;;1.42;0.57;;;9.30;80.30;;;;;;5040668;28;20044;-63
2024/01/24 02:19:57;;;;;;;3.30;0.80;;;9.30;80.10;;;;;;5039672;28;20317;-64
2024/01/24 02:22:23;;;;;;;3.40;0.88;;;9.40;80.30;;;;;;5039137;28;20029;-63
2024/01/24 02:24:48;;;;;;;1.73;0.50;;;9.40;80.10;;;;;;5039066;28;20044;-64
2024/01/24 02:27:14;;;;;;;1.83;0.47;;;9.40;79.80;;;;;;5039452;28;20500;-63
2024/01/24 02:29:39;;;;;;;2.45;0.50;;;9.50;79.80;;;;;;5039172;28;20609;-64
2024/01/24 02:32:05;;;;;;;1.70;0.50;;;9.50;79.80;;;;;;5042172;28;20374;-64
2024/01/24 02:34:31;;;;;;;3.38;0.57;;;9.60;79.60;;;;;;5041112;28;20063;-64
2024/01/24 02:36:57;;;;;;;3.00;0.60;;;9.60;79.60;;;;;;5040558;28;20030;-63
2024/01/24 02:39:22;;;;;;;1.65;0.45;;;9.60;79.60;;;;;;5036922;28;20025;-63
2024/01/24 02:41:48;;;;;;;3.83;0.70;;;9.70;79.60;;;;;;5038269;28;20025;-64
2024/01/24 02:44:13;;;;;;;1.08;0.35;;;9.70;79.60;;;;;;5038930;28;20746;-64
2024/01/24 02:46:39;;;;;;;1.40;0.40;;;9.80;79.30;;;;;;5039685;28;20125;-63
2024/01/24 02:49:05;;;;;;;1.60;0.60;;;9.90;79.20;;;;;;5040124;28;20037;-64
2024/01/24 02:51:30;;;;;;;1.35;0.47;;;9.90;79.30;;;;;;5042654;28;20516;-63
2024/01/24 02:53:56;;;;;;;2.00;0.65;;;10.00;79.10;;;;;;5039013;28;20025;-63
2024/01/24 02:56:21;;;;;;;1.38;0.38;;;10.00;78.90;;;;;;5042057;28;20021;-64
2024/01/24 02:58:47;;;;;;;2.47;0.38;;;10.10;79.20;;;;;;5039753;28;20043;-63
2024/01/24 03:01:14;;;;;;;2.70;0.40;;;10.10;79.20;;;;;;5044415;28;20025;-63
2024/01/24 03:03:40;;;;;;;1.27;0.40;;;10.20;79.30;;;;;;5038657;28;20528;-63
2024/01/24 03:06:06;;;;;;;2.08;0.50;;;10.20;78.90;;;;;;5037940;28;20037;-64
2024/01/24 03:08:58;;;;;;;3.25;0.47;;;10.30;78.30;;;;;;5037835;28;20132;-64
2024/01/24 03:11:24;;;;;;;1.23;0.45;;;10.30;77.80;;;;;;5037261;28;20539;-64
2024/01/24 03:13:50;;;;;;;2.53;0.60;;;10.30;78.30;;;;;;5034604;28;20037;-63
2024/01/24 03:16:16;;;;;;;1.35;0.40;;;10.30;78.20;;;;;;5037825;28;20033;-63
2024/01/24 03:18:42;;;;;;;1.15;0.40;;;10.30;78.10;;;;;;5040556;28;20427;-62
2024/01/24 03:21:09;;;;;;;2.33;0.40;;;10.40;79.00;;;;;;5039717;28;20033;-61
2024/01/24 03:23:38;;;;;;;1.85;0.47;;;10.40;78.10;;;;;;5039346;28;20385;-63
2024/01/24 03:26:07;;;;;;;3.15;0.68;;;10.40;77.40;;;;;;5039029;28;20033;-62
2024/01/24 03:28:34;;;;;;;1.70;0.45;;;10.40;77.50;;;;;;5035830;28;20033;-63
2024/01/24 03:31:00;;;;;;;1.27;0.50;;;10.50;77.50;;;;;;5038628;28;20036;-63
2024/01/24 03:33:26;;;;;;;1.00;0.30;;;10.40;77.00;;;;;;5043817;28;20107;-61
2024/01/24 03:35:51;;;;;;;1.35;0.50;;;10.50;77.50;;;;;;5039054;28;20119;-62
2024/01/24 03:38:19;;;;;;;0.75;0.32;;;10.50;77.20;;;;;;5041306;28;20064;-64
2024/01/24 03:40:45;;;;;;;2.05;0.43;;;10.50;76.60;;;;;;5036798;28;20030;-64
2024/01/24 03:43:11;;;;;;;1.75;0.50;;;10.50;76.80;;;;;;5040636;28;20421;-62
2024/01/24 03:45:37;;;;;;;2.13;0.50;;;10.60;76.80;;;;;;5038514;28;20029;-62
2024/01/24 03:48:04;;;;;;;1.15;0.30;;;10.60;76.70;;;;;;5040938;28;20055;-63
2024/01/24 03:50:29;;;;;;;1.35;0.50;;;10.60;76.60;;;;;;5037778;28;20025;-61
2024/01/24 03:52:55;;;;;;;0.80;0.43;;;10.70;76.30;;;;;;5037517;28;20051;-62
2024/01/24 03:55:20;;;;;;;1.65;0.40;;;10.60;76.30;;;;;;5040590;28;20056;-63
2024/01/24 03:57:46;;;;;;;1.02;0.30;;;10.70;76.30;;;;;;5041545;28;20060;-63
2024/01/24 04:00:12;;;;;;;1.75;0.50;;;10.70;77.20;;;;;;5037934;28;20059;-62
2024/01/24 04:02:39;;;;;;;3.58;0.40;;;10.70;76.30;;;;;;5039440;28;20681;-63
2024/01/24 04:05:05;;;;;;;2.33;0.40;;;10.80;76.30;;;;;;5040009;28;20098;-63
2024/01/24 04:07:31;;;;;;;2.13;0.40;;;10.80;76.50;;;;;;5044540;28;20040;-63
2024/01/24 04:09:58;;;;;;;1.98;0.60;;;10.80;76.00;;;;;;5037669;28;20033;-63
2024/01/24 04:12:23;;;;;;;1.60;0.40;;;10.90;76.50;;;;;;5039454;28;20069;-63
2024/01/24 04:14:49;;;;;;;2.08;0.43;;;10.90;76.60;;;;;;5043087;28;20091;-63
2024/01/24 04:17:14;;;;;;;2.65;0.60;;;11.00;76.70;;;;;;5042593;28;20087;-63
2024/01/24 04:19:40;;;;;;;1.42;0.40;;;11.00;76.50;;;;;;5043589;28;20041;-63
2024/01/24 04:22:05;;;;;;;1.63;0.50;;;11.00;76.60;;;;;;5037629;28;20024;-63
2024/01/24 04:24:31;;;;;;;1.98;0.52;;;11.00;76.50;;;;;;5038449;28;20043;-62
2024/01/24 04:26:57;;;;;;;1.15;0.35;;;11.10;76.70;;;;;;5038520;28;20036;-63
2024/01/24 04:29:22;;;;;;;1.92;0.47;;;11.10;76.70;;;;;;5041816;28;20154;-63
2024/01/24 04:31:48;;;;;;;1.17;0.38;;;11.10;76.80;;;;;;5031349;28;20032;-63
2024/01/24 04:34:16;;;;;;;1.92;0.50;;;11.10;77.00;;;;;;5040480;28;20160;-63
2024/01/24 04:36:43;;;;;;;1.30;0.40;;;11.10;77.00;;;;;;5037611;28;20041;-64
2024/01/24 04:39:10;;;;;;;1.20;0.50;;;11.20;77.10;;;;;;5037972;28;20033;-63
2024/01/24 04:41:36;;;;;;;2.88;0.40;;;11.20;77.20;;;;;;5039948;28;20500;-61
2024/01/24 04:44:02;;;;;;;2.17;0.50;;;11.20;77.20;;;;;;5038997;28;20067;-62
2024/01/24 04:46:28;;;;;;;0.63;0.43;;;11.20;77.00;;;;;;5045386;28;20025;-63
2024/01/24 04:48:53;;;;;;;1.40;0.45;;;11.20;76.90;;;;;;5043054;28;20378;-63
2024/01/24 04:51:19;;;;;;;0.70;0.30;;;11.20;76.80;;;;;;5045515;28;20086;-63
2024/01/24 04:53:44;;;;;;;3.38;0.50;;;11.20;76.90;;;;;;5041024;28;20240;-63
2024/01/24 04:56:10;;;;;;;0.70;0.38;;;11.20;77.00;;;;;;5044228;28;20034;-63
2024/01/24 04:58:36;;;;;;;0.82;0.57;;;11.20;77.10;;;;;;5043583;28;20112;-62
2024/01/24 05:01:03;;;;;;;1.10;0.40;;;11.20;77.20;;;;;;5043357;28;20029;-61
2024/01/24 05:03:28;;;;;;;1.58;0.60;;;11.10;77.40;;;;;;5037724;28;20397;-63
2024/01/24 05:05:54;;;;;;;0.70;0.40;;;11.10;77.70;;;;;;5042027;28;20037;-62
2024/01/24 05:08:20;;;;;;;2.47;0.47;;;11.20;78.00;;;;;;5041649;28;20033;-63
2024/01/24 05:10:45;;;;;;;1.58;0.40;;;11.10;78.40;;;;;;5041811;28;20548;-63
2024/01/24 05:13:11;;;;;;;1.27;0.70;;;11.20;78.70;;;;;;5038261;28;20044;-64
2024/01/24 05:15:36;;;;;;;1.25;0.57;;;11.20;78.80;;;;;;5038968;28;20033;-62
2024/01/24 05:18:02;;;;;;;2.35;0.40;;;11.20;78.90;;;;;;5043470;28;20131;-62
2024/01/24 05:20:28;;;;;;;1.77;0.52;;;11.30;79.00;;;;;;5038398;28;20061;-62
2024/01/24 05:22:54;;;;;;;1.08;0.40;;;11.30;79.00;;;;;;5039229;28;20063;-62
2024/01/24 05:25:20;;;;;;;1.38;0.40;;;11.40;79.10;;;;;;5037126;28;20157;-63
2024/01/24 05:27:46;;;;;;;3.30;0.50;;;11.40;79.20;;;;;;5038746;28;20033;-62
2024/01/24 05:30:12;;;;;;;0.80;0.50;;;11.40;79.20;;;;;;5041744;28;20536;-63
2024/01/24 05:32:38;;;;;;;4.55;0.60;;;11.50;79.30;;;;;;5040900;28;20051;-61
2024/01/24 05:35:04;;;;;;;1.90;0.45;;;11.50;79.40;;;;;;5046167;28;20039;-63
2024/01/24 05:37:29;;;;;;;2.33;0.50;;;11.50;79.30;;;;;;5043171;28;20037;-63
2024/01/24 05:39:55;;;;;;;2.92;0.57;;;11.50;79.40;;;;;;5040667;28;20048;-62
2024/01/24 05:42:22;;;;;;;1.35;0.40;;;11.50;79.30;;;;;;5040113;28;20037;-63
2024/01/24 05:44:48;;;;;;;1.83;0.60;;;11.60;79.40;;;;;;5040023;28;20037;-63
2024/01/24 05:47:14;;;;;;;1.00;0.50;;;11.60;79.50;;;;;;5042243;28;20060;-63
2024/01/24 05:49:39;;;;;;;2.05;0.98;;;11.60;79.60;;;;;;5040083;28;20060;-62
2024/01/24 05:52:06;;;;;;;2.13;0.70;;;11.60;79.60;;;;;;5039091;28;20029;-62
2024/01/24 05:54:32;;;;;;;1.33;0.80;;;11.70;79.60;;;;;;5041650;28;20567;-63
2024/01/24 05:56:57;;;;;;;2.05;0.50;;;11.70;79.60;;;;;;5038476;28;20083;-63
2024/01/24 05:59:23;;;;;;;3.17;0.60;;;11.70;79.60;;;;;;5041120;28;20029;-62
2024/01/24 06:01:50;;;;;;;1.55;0.60;;;11.70;79.40;;;;;;5045111;28;20040;-63
2024/01/24 06:04:16;;;;;;;1.42;0.90;;;11.70;79.30;;;;;;5041470;28;20035;-62
2024/01/24 06:06:41;;;;;;;1.88;0.60;;;11.70;79.20;;;;;;5041322;28;20037;-63
2024/01/24 06:09:07;;;;;;;1.65;0.93;;;11.70;79.30;;;;;;5046904;28;20512;-62
2024/01/24 06:11:33;;;;;;;2.67;0.60;;;11.60;79.70;;;;;;5040728;28;20025;-62
2024/01/24 06:13:58;;;;;;;1.10;0.40;;;11.60;80.30;;;;;;5041448;28;20033;-63
2024/01/24 06:16:24;;;;;;;1.95;0.30;;;11.70;81.20;;;;;;5043374;28;20777;-63
2024/01/24 06:18:50;;;;;;;0.98;0.38;;;11.70;81.70;;;;;;5046821;28;20033;-63
2024/01/24 06:21:15;;;;;;;1.00;0.30;;;11.70;82.30;;;;;;5036668;28;20059;-61
2024/01/24 06:23:41;;;;;;;0.65;0.40;;;11.80;82.40;;;;;;5040798;28;20063;-63
2024/01/24 06:26:06;;;;;;;1.25;0.35;;;11.90;82.70;;;;;;5039726;28;20416;-63
2024/01/24 06:28:32;;;;;;;1.08;0.30;;;11.90;83.00;;;;;;5043995;28;20052;-64
2024/01/24 06:30:58;;;;;;;1.75;0.38;;;12.10;83.10;;;;;;5042244;28;20025;-62
2024/01/24 06:33:24;;;;;;;1.23;0.32;;;12.20;83.00;;;;;;5035118;28;20037;-63
2024/01/24 06:35:49;;;;;;;1.25;0.40;;;12.30;83.00;;;;;;5042535;28;20037;-62
2024/01/24 06:38:15;;;;;;;2.08;0.50;;;12.30;82.90;;;;;;5040353;28;20124;-63
2024/01/24 06:40:41;;;;;;;1.30;0.43;;;12.40;82.70;;;;;;5041015;28;20116;-63
2024/01/24 06:43:06;;;;;;;0.98;0.30;;;12.50;82.50;;;;;;5046611;28;20036;-61
2024/01/24 06:45:32;;;;;;;1.92;0.30;;;12.60;82.40;;;;;;5042788;28;20524;-63
2024/01/24 06:47:58;;;;;;;0.80;0.30;;;12.70;82.20;;;;;;5039106;28;20412;-63
2024/01/24 06:50:24;;;;;;;2.10;0.30;;;12.70;82.00;;;;;;5038660;28;20037;-64
2024/01/24 06:52:50;;;;;;;0.63;0.35;;;12.70;81.90;;;;;;5040661;28;20120;-63
2024/01/24 06:55:17;;;;;;;1.52;0.30;;;12.80;81.90;;;;;;5046527;28;20549;-63
2024/01/24 06:57:44;;;;;;;1.58;0.50;;;12.80;81.70;;;;;;5047169;28;20538;-62
2024/01/24 07:00:10;;;;;;;1.15;0.40;;;12.80;81.50;;;;;;5046902;28;20455;-63
2024/01/24 07:02:36;;;;;;;1.98;0.40;;;12.80;81.40;;;;;;5045282;28;20593;-63
2024/01/24 07:05:03;;;;;;;2.63;0.47;;;12.90;81.30;;;;;;5041309;28;20033;-64
2024/01/24 07:07:29;;;;;;;1.33;0.40;;;12.90;81.20;;;;;;5048433;28;20556;-63
2024/01/24 07:09:54;;;;;;;2.50;0.52;;;12.90;81.00;;;;;;5043078;28;20577;-64
2024/01/24 07:12:21;;;;;;;1.83;0.40;;;12.90;81.00;;;;;;5045704;28;20041;-64
2024/01/24 07:14:48;;;;;;;0.70;0.47;;;12.90;81.00;;;;;;5044569;28;20043;-63
2024/01/24 07:17:14;;;;;;;3.13;0.40;;;12.90;80.90;;;;;;5048409;28;20068;-63
2024/01/24 07:19:39;;;;;;;1.45;0.40;;;12.90;80.90;;;;;;5044266;28;20454;-64
2024/01/24 07:22:05;;;;;;;1.30;0.40;;;12.90;80.80;;;;;;5048359;28;20057;-63
2024/01/24 07:24:31;;;;;;;1.33;0.60;;;12.90;80.90;;;;;;5047371;28;20036;-62
2024/01/24 07:26:57;;;;;;;0.70;0.40;;;12.90;80.90;;;;;;5043287;28;20091;-63
2024/01/24 07:29:23;;;;;;;1.10;0.30;;;12.90;80.90;;;;;;5042940;28;20401;-64
2024/01/24 07:31:48;;;;;;;0.40;0.30;;;12.90;80.90;;;;;;5043853;28;20048;-62
2024/01/24 07:34:15;;;;;;;1.48;0.40;;;12.90;80.90;;;;;;5044071;28;20531;-63
2024/01/24 07:36:41;;;;;;;0.55;0.30;;;12.90;80.90;;;;;;5046100;28;20033;-63
2024/01/24 07:39:07;;;;;;;2.20;0.40;;;12.90;80.90;;;;;;5045149;28;20098;-63
2024/01/24 07:41:33;;;;;;;2.22;0.60;;;13.00;81.00;;;;;;5046785;28;20044;-63
2024/01/24 07:43:59;;;;;;;1.52;0.30;;;13.00;81.00;;;;;;5040643;28;20036;-64
2024/01/24 07:46:27;;;;;;;1.20;0.50;;;13.00;81.00;;;;;;5047124;28;20405;-63
2024/01/24 07:48:53;;;;;;;0.93;0.40;;;13.00;80.90;;;;;;5042853;28;20042;-61
2024/01/24 07:51:20;;;;;;;1.75;0.52;;;13.00;80.80;;;;;;5044244;28;20040;-63
2024/01/24 07:53:46;;;;;;;1.05;0.40;;;13.00;80.80;;;;;;5039301;28;20040;-61
2024/01/24 07:56:12;;;;;;;1.52;0.30;;;13.00;80.70;;;;;;5046464;28;20559;-62
2024/01/24 07:58:41;;;;;;;0.55;0.20;;;13.00;80.70;;;;;;5047230;28;20132;-64
2024/01/24 08:01:09;;;;;;;0.80;0.30;;;13.10;80.80;;;;;;5045069;28;20029;-63
2024/01/24 08:03:35;;;;;;;2.03;0.30;;;13.00;80.60;;;;;;5040971;28;20041;-63
2024/01/24 08:06:01;;;;;;;2.17;0.65;;;13.00;80.60;;;;;;5042711;28;20564;-64
2024/01/24 08:08:26;;;;;;;1.35;0.50;;;13.00;80.60;;;;;;5048786;28;20435;-62
2024/01/24 08:10:52;;;;;;;1.15;0.47;;;13.10;80.50;;;;;;5041282;28;20066;-64
2024/01/24 08:13:19;;;;;;;0.95;0.38;;;13.10;80.50;;;;;;5042562;28;20032;-63
2024/01/24 08:15:46;;;;;;;0.45;0.30;;;13.10;80.60;;;;;;5040186;28;20029;-60
2024/01/24 08:18:12;;;;;;;0.40;0.28;;;13.00;80.50;;;;;;5042575;28;20035;-63
2024/01/24 08:20:38;;;;;;;1.92;0.50;;;13.10;80.60;;;;;;5044419;28;20108;-63
2024/01/24 08:23:03;;;;;;;1.42;0.40;;;13.10;80.60;;;;;;5043679;28;20060;-62
2024/01/24 08:25:29;;;;;;;2.03;0.45;;;13.10;80.60;;;;;;5045447;28;20478;-63
2024/01/24 08:27:54;;;;;;;1.02;0.40;;;13.10;80.60;;;;;;5045238;28;20037;-63
2024/01/24 08:30:20;;;;;;;1.30;0.55;;;13.10;80.80;;;;;;5045129;28;20427;-63
2024/01/24 08:32:46;;;;;;;0.98;0.40;;;13.10;80.80;;;;;;5041512;28;20045;-63
2024/01/24 08:35:12;;;;;;;1.98;0.35;;;13.10;80.80;;;;;;5042803;28;20029;-62
2024/01/24 08:37:38;;;;;;;0.70;0.40;;;13.10;80.90;;;;;;5038762;28;20041;-63
2024/01/24 08:40:05;;;;;;;1.20;0.20;;;13.10;80.90;;;;;;5042052;28;20075;-63
2024/01/24 08:42:31;;;;;;;0.85;0.40;;;13.00;80.80;;;;;;5042010;28;20021;-63
2024/01/24 08:44:56;;;;;;;0.73;0.40;;;13.10;80.80;;;;;;5040402;28;20040;-64
2024/01/24 08:47:22;;;;;;;1.33;0.30;;;13.10;80.80;;;;;;5044384;28;20045;-63
2024/01/24 08:49:48;;;;;;;1.25;0.30;;;13.10;80.80;;;;;;5045505;28;20053;-64
2024/01/24 08:52:14;;;;;;;1.10;0.40;;;13.20;81.00;;;;;;5042910;28;20048;-64
2024/01/24 08:54:43;;;;;;;0.98;0.30;;;13.20;81.00;;;;;;5044410;28;20110;-63
2024/01/24 08:57:10;;;;;;;1.08;0.30;;;13.20;81.00;;;;;;5043798;28;20483;-64
2024/01/24 08:59:38;;;;;;;1.08;0.40;;;13.20;81.00;;;;;;5045604;28;20022;-64
2024/01/24 09:02:04;;;;;;;0.80;0.45;;;13.30;81.00;;;;;;5035703;28;20038;-64
2024/01/24 09:04:30;;;;;;;0.73;0.40;;;13.30;81.00;;;;;;5039091;28;20029;-64
2024/01/24 09:06:56;;;;;;;0.57;0.30;;;13.30;80.80;;;;;;5041878;28;20052;-61
2024/01/24 09:09:22;;;;;;;0.82;0.40;;;13.30;80.80;;;;;;5046269;28;20029;-62
2024/01/24 09:11:48;;;;;;;0.50;0.20;;;13.30;80.70;;;;;;5045037;28;20393;-64
2024/01/24 09:14:14;;;;;;;0.95;0.30;;;13.30;80.60;;;;;;5037544;28;20018;-63
2024/01/24 09:16:39;;;;;;;0.50;0.40;;;13.30;80.60;;;;;;5043209;28;20030;-63
2024/01/24 09:19:05;;;;;;;0.85;0.30;;;13.30;80.50;;;;;;5040797;28;20067;-63
2024/01/24 09:21:30;;;;;;;0.50;0.38;;;13.40;80.50;;;;;;5041287;28;20506;-64
2024/01/24 09:23:56;;;;;;;1.00;0.50;;;13.40;80.50;;;;;;5039753;28;20087;-64
2024/01/24 09:26:22;;;;;;;1.13;0.30;;;13.40;81.30;;;;;;5042446;28;20051;-63
2024/01/24 09:28:48;;;;;;;1.30;0.50;;;13.50;80.50;;;;;;5040699;28;20052;-64
2024/01/24 09:31:13;;;;;;;1.60;0.30;;;13.50;80.50;;;;;;5039933;28;20032;-64
2024/01/24 09:33:39;;;;;;;0.93;0.38;;;13.50;80.50;;;;;;5039378;28;20051;-62
2024/01/24 09:36:05;;;;;;;0.20;0.10;;;13.50;80.40;;;;;;5045097;28;20038;-64
2024/01/24 09:38:31;;;;;;;0.50;0.20;;;13.50;80.50;;;;;;5044037;28;20086;-64
2024/01/24 09:41:01;;;;;;;0.63;0.30;;;13.50;80.40;;;;;;5040238;28;20052;-64
2024/01/24 09:43:29;;;;;;;0.63;0.32;;;13.50;80.40;;;;;;5041885;28;20124;-64
2024/01/24 09:45:57;;;;;;;1.15;0.35;;;13.60;80.60;;;;;;5038523;28;20054;-64
2024/01/24 09:48:23;;;;;;;0.60;0.30;;;13.60;80.50;;;;;;5039707;28;20143;-63
2024/01/24 09:50:49;;;;;;;0.73;0.40;;;13.60;80.50;;;;;;5044403;28;20493;-64
2024/01/24 09:53:19;;;;;;;1.08;0.32;;;13.60;80.50;;;;;;5044460;28;20041;-64
2024/01/24 09:55:45;;;;;;;1.73;0.20;;;13.60;80.50;;;;;;5041105;28;20086;-64
2024/01/24 09:58:11;;;;;;;1.45;0.28;;;13.70;80.30;;;;;;5042954;28;20406;-64
2024/01/24 10:00:36;;;;;;;0.70;0.40;;;13.70;80.30;;;;;;5044497;28;20040;-64
2024/01/24 10:03:03;;;;;;;0.98;0.40;;;13.70;80.30;;;;;;5041084;28;20029;-63
2024/01/24 10:05:30;;;;;;;0.60;0.30;;;13.70;80.20;;;;;;5041107;28;20056;-63
2024/01/24 10:07:55;;;;;;;0.73;0.20;;;13.70;80.30;;;;;;5042753;28;20029;-64
2024/01/24 10:10:21;;;;;;;1.23;0.43;;;13.80;80.30;;;;;;5041622;28;20574;-63
2024/01/24 10:12:47;;;;;;;0.60;0.20;;;13.80;80.20;;;;;;5039331;28;20034;-62
2024/01/24 10:15:13;;;;;;;0.43;0.30;;;13.80;80.10;;;;;;5041328;28;20099;-63
2024/01/24 10:17:42;;;;;;;0.55;0.30;;;13.80;80.10;;;;;;5041588;28;20607;-63
2024/01/24 10:20:10;;;;;;;0.45;0.30;;;13.80;80.10;;;;;;5045853;28;20025;-63
2024/01/24 10:22:36;;;;;;;0.70;0.40;;;13.90;80.10;;;;;;5043084;28;20033;-64
2024/01/24 10:25:01;;;;;;;0.88;0.30;;;13.90;80.10;;;;;;5039773;28;20030;-62
2024/01/24 10:27:27;;;;;;;0.52;0.40;;;13.90;80.00;;;;;;5039175;28;20086;-63
2024/01/24 10:29:52;;;;;;;0.50;0.20;;;13.90;80.00;;;;;;5043028;28;20043;-64
2024/01/24 10:32:19;;;;;;;0.65;0.20;;;14.00;80.00;;;;;;5044684;28;20040;-64
2024/01/24 10:34:45;;;;;;;0.60;0.28;;;14.00;79.80;;;;;;5045565;28;20499;-64
2024/01/24 10:37:11;;;;;;;0.38;0.20;;;14.10;79.80;;;;;;5044970;28;20044;-64
2024/01/24 10:39:37;;;;;;;0.35;0.17;;;14.10;80.50;;;;;;5044689;28;20401;-64
2024/01/24 10:42:06;;;;;;;0.30;0.20;;;14.10;79.60;;;;;;5044255;28;20036;-64
2024/01/24 10:44:35;;;;;;;1.23;0.10;;;14.10;79.50;;;;;;5044486;28;20025;-64
2024/01/24 10:47:04;;;;;;;0.30;0.20;;;14.20;79.30;;;;;;5046176;28;20140;-63
2024/01/24 10:49:31;;;;;;;0.40;0.20;;;14.20;79.30;;;;;;5047363;28;20036;-64
2024/01/24 10:51:58;;;;;;;0.73;0.25;;;14.20;79.10;;;;;;5041715;28;20022;-64
2024/01/24 10:54:24;;;;;;;0.20;0.20;;;14.30;78.90;;;;;;5042074;28;20029;-64
2024/01/24 10:56:50;;;;;;;0.40;0.25;;;14.30;78.90;;;;;;5042326;28;20041;-64
2024/01/24 10:59:17;;;;;;;4.20;0.30;;;14.30;78.70;;;;;;5044307;28;20029;-64
2024/01/24 11:01:43;;;;;;;0.35;0.20;;;14.30;78.70;;;;;;5044593;28;20045;-64
2024/01/24 11:04:10;;;;;;;0.20;0.10;;;14.30;78.80;;;;;;5043338;28;20048;-64
2024/01/24 11:06:51;;;;;;;0.30;0.20;;;14.30;78.70;;;;;;5044101;28;20524;-64
2024/01/24 11:09:28;;;;;;;0.10;0.08;;;14.30;78.90;;;;;;5044721;28;20431;-62
2024/01/24 11:11:57;;;;;;;0.30;0.10;;;14.30;78.70;;;;;;5042909;28;20033;-64
2024/01/24 11:14:33;;;;;;;1.02;0.10;;;14.30;78.80;;;;;;5042325;28;20581;-64
2024/01/24 11:17:02;;;;;;;0.25;0.15;;;14.40;78.70;;;;;;5045853;28;20041;-62
2024/01/24 11:19:29;;;;;;;0.20;0.10;;;14.40;78.80;;;;;;5041573;28;20040;-63
2024/01/24 11:22:00;;;;;;;0.20;0.10;;;14.40;78.70;;;;;;5041344;28;20619;-63
2024/01/24 11:24:43;;;;;;;0.32;0.20;;;14.40;78.70;;;;;;5044433;28;20029;-64
2024/01/24 11:27:34;;;;;;;0.50;0.10;;;14.40;78.60;;;;;;5044450;28;20078;-64
2024/01/24 11:30:23;;;;;;;0.20;0.10;;;14.40;78.70;;;;;;5045036;28;20124;-64
2024/01/24 11:32:50;;;;;;;0.30;0.17;;;14.50;78.70;;;;;;5027623;28;20033;-64
2024/01/24 11:35:40;;;;;;;0.17;0.10;;;14.50;78.90;;;;;;5046927;28;20098;-64
2024/01/24 11:38:06;;;;;;;0.57;0.10;;;14.50;78.60;;;;;;5045837;28;20029;-62
2024/01/24 11:40:37;;;;;;;0.15;0.10;;;14.50;78.90;;;;;;5044994;28;20033;-63
2024/01/24 11:43:03;;;;;;;0.10;0.10;;;14.50;78.90;;;;;;5046329;28;20025;-64
2024/01/24 11:45:30;;;;;;;0.15;0.00;;;14.50;78.90;;;;;;5040226;28;20057;-64
2024/01/24 11:47:57;;;;;;;0.40;0.20;;;14.60;78.90;;;;;;5043090;28;21789;-64
2024/01/24 11:50:23;;;;;;;0.10;0.10;;;14.60;78.90;;;;;;5042317;28;20120;-64
2024/01/24 11:52:49;;;;;;;0.15;0.13;;;14.60;78.90;;;;;;5046317;28;20094;-63
2024/01/24 11:55:14;;;;;;;0.40;0.20;;;14.60;78.70;;;;;;5042910;28;20041;-63
2024/01/24 11:57:41;;;;;;;0.30;0.00;;;14.70;78.70;;;;;;5036787;28;20124;-64
2024/01/24 12:00:08;;;;;;;1.23;0.15;;;14.70;78.50;;;;;;5044399;28;20033;-64
2024/01/24 12:02:34;;;;;;;0.00;0.00;;;14.70;78.60;;;;;;5045787;28;20095;-64
2024/01/24 12:05:00;;;;;;;0.30;0.10;;;14.70;78.40;;;;;;5046018;28;20052;-64
2024/01/24 12:07:26;;;;;;;0.10;0.10;;;14.70;78.60;;;;;;5048447;28;20129;-62
2024/01/24 12:09:53;;;;;;;0.52;0.10;;;14.80;78.70;;;;;;5043673;28;20029;-64
2024/01/24 12:12:19;;;;;;;0.65;0.20;;;14.80;78.80;;;;;;5039735;28;20032;-64
2024/01/24 12:14:45;;;;;;;1.98;0.28;;;14.80;78.60;;;;;;5039099;28;20492;-64
2024/01/24 12:17:11;;;;;;;0.55;0.20;;;14.80;78.70;;;;;;5044255;28;20052;-64
2024/01/24 12:19:37;;;;;;;0.28;0.10;;;14.90;78.80;;;;;;5039537;28;20038;-62
2024/01/24 12:22:06;;;;;;;0.25;0.13;;;14.90;78.70;;;;;;5044094;28;20037;-63
2024/01/24 12:24:31;;;;;;;0.75;0.20;;;14.90;78.70;;;;;;5041377;28;20060;-64
2024/01/24 12:26:57;;;;;;;0.45;0.10;;;15.00;78.50;;;;;;5044351;28;20056;-64
2024/01/24 12:29:23;;;;;;;0.10;0.10;;;15.00;78.00;;;;;;5047621;28;20492;-65
2024/01/24 12:31:49;;;;;;;0.20;0.10;;;15.00;78.10;;;;;;5043152;28;20348;-64
2024/01/24 12:34:14;;;;;;;0.10;0.00;;;15.00;77.90;;;;;;5044731;28;20033;-65
2024/01/24 12:36:43;;;;;;;1.02;0.17;;;15.00;77.80;;;;;;5042160;28;20040;-64
2024/01/24 12:39:09;;;;;;;1.75;0.47;;;15.00;77.60;;;;;;5046730;28;20048;-65
2024/01/24 12:41:35;;;;;;;0.20;0.10;;;15.00;77.90;;;;;;5045944;28;20033;-64
2024/01/24 12:44:01;;;;;;;0.20;0.10;;;15.00;77.90;;;;;;5039249;28;20062;-65